sensor_id;sensor_type;location;lat;lon;timestamp;P1;durP1;ratioP1;P2;durP2;ratioP2
52952;SDS011;38815;55.932;-3.232;2022-07-29T00:01:33;6.63;;;2.10;;
52952;SDS011;38815;55.932;-3.232;2022-07-29T00:03:59;6.93;;;1.88;;
52952;SDS011;38815;55.932;-3.232;2022-07-29T00:06:24;9.93;;;2.35;;
52952;SDS011;38815;55.932;-3.232;2022-07-29T00:08:49;6.10;;;1.92;;
52952;SDS011;38815;55.932;-3.232;2022-07-29T00:11:15;3.70;;;1.55;;
52952;SDS011;38815;55.932;-3.232;2022-07-29T00:13:40;5.28;;;1.50;;
52952;SDS011;38815;55.932;-3.232;2022-07-29T00:16:06;5.18;;;1.52;;
52952;SDS011;38815;55.932;-3.232;2022-07-29T00:18:31;4.55;;;1.60;;
52952;SDS011;38815;55.932;-3.232;2022-07-29T00:20:57;8.82;;;1.70;;
52952;SDS011;38815;55.932;-3.232;2022-07-29T00:23:22;5.75;;;1.35;;
52952;SDS011;38815;55.932;-3.232;2022-07-29T00:25:48;5.43;;;1.70;;
52952;SDS011;38815;55.932;-3.232;2022-07-29T00:28:13;7.13;;;1.65;;
52952;SDS011;38815;55.932;-3.232;2022-07-29T00:30:38;5.22;;;1.50;;
52952;SDS011;38815;55.932;-3.232;2022-07-29T00:33:04;3.53;;;1.35;;
52952;SDS011;38815;55.932;-3.232;2022-07-29T00:35:30;6.80;;;1.95;;
52952;SDS011;38815;55.932;-3.232;2022-07-29T00:38:11;5.72;;;2.08;;
52952;SDS011;38815;55.932;-3.232;2022-07-29T00:40:38;4.35;;;1.67;;
52952;SDS011;38815;55.932;-3.232;2022-07-29T00:43:03;5.85;;;2.08;;
52952;SDS011;38815;55.932;-3.232;2022-07-29T00:45:29;6.32;;;1.90;;
52952;SDS011;38815;55.932;-3.232;2022-07-29T00:47:55;6.00;;;1.95;;
52952;SDS011;38815;55.932;-3.232;2022-07-29T00:50:20;7.10;;;2.22;;
52952;SDS011;38815;55.932;-3.232;2022-07-29T00:52:46;6.20;;;1.95;;
52952;SDS011;38815;55.932;-3.232;2022-07-29T00:55:14;5.50;;;1.90;;
52952;SDS011;38815;55.932;-3.232;2022-07-29T00:57:41;4.07;;;1.58;;
52952;SDS011;38815;55.932;-3.232;2022-07-29T01:00:08;5.35;;;2.00;;
52952;SDS011;38815;55.932;-3.232;2022-07-29T01:02:36;6.43;;;2.05;;
52952;SDS011;38815;55.932;-3.232;2022-07-29T01:05:02;6.78;;;1.75;;
52952;SDS011;38815;55.932;-3.232;2022-07-29T01:07:30;6.13;;;1.80;;
52952;SDS011;38815;55.932;-3.232;2022-07-29T01:09:58;6.10;;;1.75;;
52952;SDS011;38815;55.932;-3.232;2022-07-29T01:12:25;6.97;;;1.65;;
52952;SDS011;38815;55.932;-3.232;2022-07-29T01:14:52;7.07;;;1.80;;
52952;SDS011;38815;55.932;-3.232;2022-07-29T01:17:31;6.40;;;1.73;;
52952;SDS011;38815;55.932;-3.232;2022-07-29T01:25:54;6.22;;;2.00;;
52952;SDS011;38815;55.932;-3.232;2022-07-29T01:28:36;5.72;;;1.55;;
52952;SDS011;38815;55.932;-3.232;2022-07-29T01:31:19;6.72;;;1.75;;
52952;SDS011;38815;55.932;-3.232;2022-07-29T01:33:49;5.65;;;1.83;;
52952;SDS011;38815;55.932;-3.232;2022-07-29T01:36:22;5.35;;;1.65;;
52952;SDS011;38815;55.932;-3.232;2022-07-29T01:38:54;3.42;;;1.58;;
52952;SDS011;38815;55.932;-3.232;2022-07-29T01:41:29;4.43;;;1.40;;
52952;SDS011;38815;55.932;-3.232;2022-07-29T01:43:59;5.15;;;1.75;;
52952;SDS011;38815;55.932;-3.232;2022-07-29T01:46:37;3.75;;;1.23;;
52952;SDS011;38815;55.932;-3.232;2022-07-29T01:49:24;2.88;;;1.30;;
52952;SDS011;38815;55.932;-3.232;2022-07-29T01:51:53;5.70;;;1.58;;
52952;SDS011;38815;55.932;-3.232;2022-07-29T01:54:30;7.40;;;1.63;;
52952;SDS011;38815;55.932;-3.232;2022-07-29T01:57:00;6.15;;;1.80;;
52952;SDS011;38815;55.932;-3.232;2022-07-29T01:59:28;3.05;;;1.23;;
52952;SDS011;38815;55.932;-3.232;2022-07-29T02:01:56;4.68;;;1.25;;
52952;SDS011;38815;55.932;-3.232;2022-07-29T02:04:23;4.45;;;1.50;;
52952;SDS011;38815;55.932;-3.232;2022-07-29T02:06:51;3.90;;;1.40;;
52952;SDS011;38815;55.932;-3.232;2022-07-29T02:09:19;5.80;;;1.33;;
52952;SDS011;38815;55.932;-3.232;2022-07-29T02:11:48;4.43;;;1.48;;
52952;SDS011;38815;55.932;-3.232;2022-07-29T02:14:20;6.47;;;1.88;;
52952;SDS011;38815;55.932;-3.232;2022-07-29T02:16:48;3.67;;;1.38;;
52952;SDS011;38815;55.932;-3.232;2022-07-29T02:19:18;2.88;;;1.30;;
52952;SDS011;38815;55.932;-3.232;2022-07-29T02:21:47;5.70;;;1.45;;
52952;SDS011;38815;55.932;-3.232;2022-07-29T02:24:13;3.80;;;1.52;;
52952;SDS011;38815;55.932;-3.232;2022-07-29T02:26:41;5.55;;;1.65;;
52952;SDS011;38815;55.932;-3.232;2022-07-29T02:29:08;6.13;;;1.80;;
52952;SDS011;38815;55.932;-3.232;2022-07-29T02:31:35;5.45;;;1.42;;
52952;SDS011;38815;55.932;-3.232;2022-07-29T02:34:03;6.15;;;1.90;;
52952;SDS011;38815;55.932;-3.232;2022-07-29T02:36:31;7.72;;;2.10;;
52952;SDS011;38815;55.932;-3.232;2022-07-29T02:38:59;5.20;;;1.85;;
52952;SDS011;38815;55.932;-3.232;2022-07-29T02:41:27;7.40;;;1.88;;
52952;SDS011;38815;55.932;-3.232;2022-07-29T02:43:54;4.95;;;1.70;;
52952;SDS011;38815;55.932;-3.232;2022-07-29T02:46:25;7.00;;;1.70;;
52952;SDS011;38815;55.932;-3.232;2022-07-29T02:48:57;5.88;;;1.55;;
52952;SDS011;38815;55.932;-3.232;2022-07-29T02:51:40;5.20;;;1.60;;
52952;SDS011;38815;55.932;-3.232;2022-07-29T02:54:09;5.40;;;1.63;;
52952;SDS011;38815;55.932;-3.232;2022-07-29T02:56:36;7.63;;;2.00;;
52952;SDS011;38815;55.932;-3.232;2022-07-29T02:59:10;3.33;;;1.40;;
52952;SDS011;38815;55.932;-3.232;2022-07-29T03:01:39;6.13;;;1.52;;
52952;SDS011;38815;55.932;-3.232;2022-07-29T03:04:07;4.72;;;1.58;;
52952;SDS011;38815;55.932;-3.232;2022-07-29T03:06:34;3.50;;;1.60;;
52952;SDS011;38815;55.932;-3.232;2022-07-29T03:09:02;4.68;;;1.42;;
52952;SDS011;38815;55.932;-3.232;2022-07-29T03:11:28;7.95;;;1.98;;
52952;SDS011;38815;55.932;-3.232;2022-07-29T03:13:54;4.93;;;1.60;;
52952;SDS011;38815;55.932;-3.232;2022-07-29T03:16:20;5.25;;;1.40;;
52952;SDS011;38815;55.932;-3.232;2022-07-29T03:18:48;3.60;;;1.33;;
52952;SDS011;38815;55.932;-3.232;2022-07-29T03:21:15;6.93;;;1.50;;
52952;SDS011;38815;55.932;-3.232;2022-07-29T03:23:44;5.70;;;1.52;;
52952;SDS011;38815;55.932;-3.232;2022-07-29T03:26:12;6.40;;;1.50;;
52952;SDS011;38815;55.932;-3.232;2022-07-29T03:28:38;4.65;;;1.67;;
52952;SDS011;38815;55.932;-3.232;2022-07-29T03:31:03;10.23;;;2.17;;
52952;SDS011;38815;55.932;-3.232;2022-07-29T03:33:29;4.60;;;1.50;;
52952;SDS011;38815;55.932;-3.232;2022-07-29T03:35:55;7.65;;;1.50;;
52952;SDS011;38815;55.932;-3.232;2022-07-29T03:38:21;5.45;;;1.55;;
52952;SDS011;38815;55.932;-3.232;2022-07-29T03:40:51;5.35;;;1.67;;
52952;SDS011;38815;55.932;-3.232;2022-07-29T03:43:19;5.53;;;1.40;;
52952;SDS011;38815;55.932;-3.232;2022-07-29T03:45:47;6.55;;;1.60;;
52952;SDS011;38815;55.932;-3.232;2022-07-29T03:48:17;5.93;;;1.70;;
52952;SDS011;38815;55.932;-3.232;2022-07-29T03:50:45;5.10;;;1.33;;
52952;SDS011;38815;55.932;-3.232;2022-07-29T03:53:11;5.70;;;1.92;;
52952;SDS011;38815;55.932;-3.232;2022-07-29T03:55:40;8.40;;;2.20;;
52952;SDS011;38815;55.932;-3.232;2022-07-29T03:58:08;5.03;;;1.48;;
52952;SDS011;38815;55.932;-3.232;2022-07-29T04:00:35;6.45;;;1.80;;
52952;SDS011;38815;55.932;-3.232;2022-07-29T04:03:01;6.22;;;1.83;;
52952;SDS011;38815;55.932;-3.232;2022-07-29T04:05:28;7.60;;;1.67;;
52952;SDS011;38815;55.932;-3.232;2022-07-29T04:07:54;4.63;;;1.52;;
52952;SDS011;38815;55.932;-3.232;2022-07-29T04:10:19;5.25;;;1.65;;
52952;SDS011;38815;55.932;-3.232;2022-07-29T04:12:45;6.05;;;1.70;;
52952;SDS011;38815;55.932;-3.232;2022-07-29T04:15:10;6.28;;;1.80;;
52952;SDS011;38815;55.932;-3.232;2022-07-29T04:17:36;6.18;;;1.63;;
52952;SDS011;38815;55.932;-3.232;2022-07-29T04:20:02;5.38;;;1.65;;
52952;SDS011;38815;55.932;-3.232;2022-07-29T04:22:28;5.93;;;2.00;;
52952;SDS011;38815;55.932;-3.232;2022-07-29T04:24:54;6.03;;;1.48;;
52952;SDS011;38815;55.932;-3.232;2022-07-29T04:27:19;5.07;;;1.70;;
52952;SDS011;38815;55.932;-3.232;2022-07-29T04:29:44;5.32;;;1.60;;
52952;SDS011;38815;55.932;-3.232;2022-07-29T04:32:10;5.72;;;1.80;;
52952;SDS011;38815;55.932;-3.232;2022-07-29T04:34:37;5.07;;;1.70;;
52952;SDS011;38815;55.932;-3.232;2022-07-29T04:37:03;5.70;;;1.50;;
52952;SDS011;38815;55.932;-3.232;2022-07-29T04:39:28;7.47;;;1.77;;
52952;SDS011;38815;55.932;-3.232;2022-07-29T04:41:53;6.93;;;1.75;;
52952;SDS011;38815;55.932;-3.232;2022-07-29T04:44:19;8.75;;;1.88;;
52952;SDS011;38815;55.932;-3.232;2022-07-29T04:46:44;3.85;;;1.27;;
52952;SDS011;38815;55.932;-3.232;2022-07-29T04:49:10;5.40;;;1.75;;
52952;SDS011;38815;55.932;-3.232;2022-07-29T04:51:35;4.00;;;1.65;;
52952;SDS011;38815;55.932;-3.232;2022-07-29T04:54:01;7.88;;;1.60;;
52952;SDS011;38815;55.932;-3.232;2022-07-29T04:56:26;5.38;;;1.38;;
52952;SDS011;38815;55.932;-3.232;2022-07-29T04:58:52;5.50;;;1.60;;
52952;SDS011;38815;55.932;-3.232;2022-07-29T05:01:18;6.45;;;1.50;;
52952;SDS011;38815;55.932;-3.232;2022-07-29T05:03:43;5.40;;;1.40;;
52952;SDS011;38815;55.932;-3.232;2022-07-29T05:06:10;8.18;;;1.65;;
52952;SDS011;38815;55.932;-3.232;2022-07-29T05:08:35;5.50;;;1.70;;
52952;SDS011;38815;55.932;-3.232;2022-07-29T05:11:01;4.03;;;1.50;;
52952;SDS011;38815;55.932;-3.232;2022-07-29T05:13:26;4.85;;;1.50;;
52952;SDS011;38815;55.932;-3.232;2022-07-29T05:15:52;5.82;;;1.40;;
52952;SDS011;38815;55.932;-3.232;2022-07-29T05:18:17;6.03;;;1.70;;
52952;SDS011;38815;55.932;-3.232;2022-07-29T05:20:42;6.75;;;1.80;;
52952;SDS011;38815;55.932;-3.232;2022-07-29T05:23:08;5.55;;;1.75;;
52952;SDS011;38815;55.932;-3.232;2022-07-29T05:25:34;3.08;;;1.33;;
52952;SDS011;38815;55.932;-3.232;2022-07-29T05:27:59;5.18;;;1.40;;
52952;SDS011;38815;55.932;-3.232;2022-07-29T05:30:24;3.13;;;1.23;;
52952;SDS011;38815;55.932;-3.232;2022-07-29T05:32:50;4.45;;;1.48;;
52952;SDS011;38815;55.932;-3.232;2022-07-29T05:35:15;3.80;;;1.35;;
52952;SDS011;38815;55.932;-3.232;2022-07-29T05:37:41;2.90;;;1.27;;
52952;SDS011;38815;55.932;-3.232;2022-07-29T05:40:07;4.22;;;1.40;;
52952;SDS011;38815;55.932;-3.232;2022-07-29T05:42:33;3.58;;;1.45;;
52952;SDS011;38815;55.932;-3.232;2022-07-29T05:44:59;3.58;;;1.42;;
52952;SDS011;38815;55.932;-3.232;2022-07-29T05:47:25;5.45;;;1.60;;
52952;SDS011;38815;55.932;-3.232;2022-07-29T05:49:51;4.03;;;1.58;;
52952;SDS011;38815;55.932;-3.232;2022-07-29T05:52:17;4.95;;;1.60;;
52952;SDS011;38815;55.932;-3.232;2022-07-29T05:54:42;4.47;;;1.65;;
52952;SDS011;38815;55.932;-3.232;2022-07-29T05:57:08;3.25;;;1.10;;
52952;SDS011;38815;55.932;-3.232;2022-07-29T05:59:40;4.88;;;1.38;;
52952;SDS011;38815;55.932;-3.232;2022-07-29T06:02:05;5.80;;;1.80;;
52952;SDS011;38815;55.932;-3.232;2022-07-29T06:04:31;4.65;;;1.50;;
52952;SDS011;38815;55.932;-3.232;2022-07-29T06:06:57;5.72;;;1.92;;
52952;SDS011;38815;55.932;-3.232;2022-07-29T06:09:22;4.40;;;1.50;;
52952;SDS011;38815;55.932;-3.232;2022-07-29T06:11:48;7.20;;;1.85;;
52952;SDS011;38815;55.932;-3.232;2022-07-29T06:14:13;5.82;;;1.90;;
52952;SDS011;38815;55.932;-3.232;2022-07-29T06:16:39;6.93;;;2.10;;
52952;SDS011;38815;55.932;-3.232;2022-07-29T06:19:04;6.25;;;1.50;;
52952;SDS011;38815;55.932;-3.232;2022-07-29T06:21:30;8.10;;;1.60;;
52952;SDS011;38815;55.932;-3.232;2022-07-29T06:23:56;6.03;;;1.60;;
52952;SDS011;38815;55.932;-3.232;2022-07-29T06:26:21;5.05;;;1.90;;
52952;SDS011;38815;55.932;-3.232;2022-07-29T06:28:47;4.53;;;1.70;;
52952;SDS011;38815;55.932;-3.232;2022-07-29T06:31:13;6.30;;;1.45;;
52952;SDS011;38815;55.932;-3.232;2022-07-29T06:33:38;7.57;;;1.50;;
52952;SDS011;38815;55.932;-3.232;2022-07-29T06:36:04;6.20;;;1.60;;
52952;SDS011;38815;55.932;-3.232;2022-07-29T06:38:30;5.40;;;1.77;;
52952;SDS011;38815;55.932;-3.232;2022-07-29T06:40:57;4.53;;;1.48;;
52952;SDS011;38815;55.932;-3.232;2022-07-29T06:43:31;4.80;;;1.50;;
52952;SDS011;38815;55.932;-3.232;2022-07-29T06:46:04;8.57;;;1.95;;
52952;SDS011;38815;55.932;-3.232;2022-07-29T06:48:32;5.93;;;1.50;;
52952;SDS011;38815;55.932;-3.232;2022-07-29T06:50:59;3.60;;;1.30;;
52952;SDS011;38815;55.932;-3.232;2022-07-29T06:53:25;5.32;;;1.58;;
52952;SDS011;38815;55.932;-3.232;2022-07-29T06:55:51;6.07;;;1.77;;
52952;SDS011;38815;55.932;-3.232;2022-07-29T06:58:16;6.65;;;1.95;;
52952;SDS011;38815;55.932;-3.232;2022-07-29T07:00:45;6.38;;;1.60;;
52952;SDS011;38815;55.932;-3.232;2022-07-29T07:03:11;8.00;;;1.75;;
52952;SDS011;38815;55.932;-3.232;2022-07-29T07:05:36;4.32;;;1.52;;
52952;SDS011;38815;55.932;-3.232;2022-07-29T07:08:02;4.78;;;1.65;;
52952;SDS011;38815;55.932;-3.232;2022-07-29T07:10:28;7.15;;;1.80;;
52952;SDS011;38815;55.932;-3.232;2022-07-29T07:12:54;4.15;;;1.40;;
52952;SDS011;38815;55.932;-3.232;2022-07-29T07:15:19;5.25;;;1.77;;
52952;SDS011;38815;55.932;-3.232;2022-07-29T07:17:47;5.22;;;1.60;;
52952;SDS011;38815;55.932;-3.232;2022-07-29T07:20:14;7.97;;;2.00;;
52952;SDS011;38815;55.932;-3.232;2022-07-29T07:22:39;5.47;;;1.63;;
52952;SDS011;38815;55.932;-3.232;2022-07-29T07:25:05;6.68;;;1.90;;
52952;SDS011;38815;55.932;-3.232;2022-07-29T07:27:31;5.60;;;2.00;;
52952;SDS011;38815;55.932;-3.232;2022-07-29T07:29:56;7.00;;;2.30;;
52952;SDS011;38815;55.932;-3.232;2022-07-29T07:32:22;8.07;;;2.53;;
52952;SDS011;38815;55.932;-3.232;2022-07-29T07:34:47;6.55;;;1.83;;
52952;SDS011;38815;55.932;-3.232;2022-07-29T07:37:13;6.00;;;1.88;;
52952;SDS011;38815;55.932;-3.232;2022-07-29T07:39:39;11.77;;;2.22;;
52952;SDS011;38815;55.932;-3.232;2022-07-29T07:42:05;5.07;;;1.80;;
52952;SDS011;38815;55.932;-3.232;2022-07-29T07:44:30;17.15;;;2.47;;
52952;SDS011;38815;55.932;-3.232;2022-07-29T07:46:56;13.98;;;3.50;;
52952;SDS011;38815;55.932;-3.232;2022-07-29T07:49:21;400.75;;;121.05;;
52952;SDS011;38815;55.932;-3.232;2022-07-29T07:51:46;384.52;;;115.38;;
52952;SDS011;38815;55.932;-3.232;2022-07-29T07:54:12;391.83;;;120.60;;
52952;SDS011;38815;55.932;-3.232;2022-07-29T07:56:37;264.27;;;72.95;;
52952;SDS011;38815;55.932;-3.232;2022-07-29T07:59:03;190.60;;;61.45;;
52952;SDS011;38815;55.932;-3.232;2022-07-29T08:01:28;172.15;;;53.08;;
52952;SDS011;38815;55.932;-3.232;2022-07-29T08:03:53;144.18;;;45.30;;
52952;SDS011;38815;55.932;-3.232;2022-07-29T08:06:19;156.65;;;48.78;;
52952;SDS011;38815;55.932;-3.232;2022-07-29T08:08:44;95.00;;;32.35;;
52952;SDS011;38815;55.932;-3.232;2022-07-29T08:11:10;110.43;;;34.47;;
52952;SDS011;38815;55.932;-3.232;2022-07-29T08:13:36;134.90;;;41.95;;
52952;SDS011;38815;55.932;-3.232;2022-07-29T08:16:02;69.65;;;23.88;;
52952;SDS011;38815;55.932;-3.232;2022-07-29T08:18:37;70.13;;;22.60;;
52952;SDS011;38815;55.932;-3.232;2022-07-29T08:21:04;64.90;;;18.90;;
52952;SDS011;38815;55.932;-3.232;2022-07-29T08:23:29;56.40;;;19.63;;
52952;SDS011;38815;55.932;-3.232;2022-07-29T08:26:05;57.03;;;17.45;;
52952;SDS011;38815;55.932;-3.232;2022-07-29T08:28:35;43.92;;;14.93;;
52952;SDS011;38815;55.932;-3.232;2022-07-29T08:31:02;43.92;;;14.77;;
52952;SDS011;38815;55.932;-3.232;2022-07-29T08:33:27;45.05;;;15.15;;
52952;SDS011;38815;55.932;-3.232;2022-07-29T08:35:52;44.50;;;17.30;;
52952;SDS011;38815;55.932;-3.232;2022-07-29T08:38:18;41.90;;;16.08;;
52952;SDS011;38815;55.932;-3.232;2022-07-29T08:40:43;65.45;;;17.75;;
52952;SDS011;38815;55.932;-3.232;2022-07-29T08:43:09;35.65;;;12.63;;
52952;SDS011;38815;55.932;-3.232;2022-07-29T08:45:45;47.65;;;15.88;;
52952;SDS011;38815;55.932;-3.232;2022-07-29T08:48:12;43.08;;;14.77;;
52952;SDS011;38815;55.932;-3.232;2022-07-29T08:50:39;35.65;;;11.60;;
52952;SDS011;38815;55.932;-3.232;2022-07-29T08:53:07;31.55;;;11.00;;
52952;SDS011;38815;55.932;-3.232;2022-07-29T08:55:35;25.48;;;7.57;;
52952;SDS011;38815;55.932;-3.232;2022-07-29T08:58:03;31.40;;;9.82;;
52952;SDS011;38815;55.932;-3.232;2022-07-29T09:00:30;20.48;;;6.88;;
52952;SDS011;38815;55.932;-3.232;2022-07-29T09:02:57;23.45;;;7.32;;
52952;SDS011;38815;55.932;-3.232;2022-07-29T09:05:24;18.35;;;5.72;;
52952;SDS011;38815;55.932;-3.232;2022-07-29T09:07:50;21.45;;;6.35;;
52952;SDS011;38815;55.932;-3.232;2022-07-29T09:10:17;21.98;;;7.47;;
52952;SDS011;38815;55.932;-3.232;2022-07-29T09:12:42;23.00;;;6.57;;
52952;SDS011;38815;55.932;-3.232;2022-07-29T09:15:08;18.33;;;5.63;;
52952;SDS011;38815;55.932;-3.232;2022-07-29T09:17:47;18.25;;;5.63;;
52952;SDS011;38815;55.932;-3.232;2022-07-29T09:20:17;16.73;;;4.88;;
52952;SDS011;38815;55.932;-3.232;2022-07-29T09:22:44;15.50;;;4.63;;
52952;SDS011;38815;55.932;-3.232;2022-07-29T09:25:14;13.45;;;4.30;;
52952;SDS011;38815;55.932;-3.232;2022-07-29T09:28:04;16.60;;;4.32;;
52952;SDS011;38815;55.932;-3.232;2022-07-29T09:30:31;15.05;;;4.15;;
52952;SDS011;38815;55.932;-3.232;2022-07-29T09:32:57;15.75;;;4.63;;
52952;SDS011;38815;55.932;-3.232;2022-07-29T09:35:28;14.38;;;4.18;;
52952;SDS011;38815;55.932;-3.232;2022-07-29T09:37:55;9.65;;;3.28;;
52952;SDS011;38815;55.932;-3.232;2022-07-29T09:40:21;13.73;;;3.78;;
52952;SDS011;38815;55.932;-3.232;2022-07-29T09:42:51;10.85;;;3.90;;
52952;SDS011;38815;55.932;-3.232;2022-07-29T09:45:52;17.48;;;4.00;;
52952;SDS011;38815;55.932;-3.232;2022-07-29T09:48:13;10.10;;;3.30;;
52952;SDS011;38815;55.932;-3.232;2022-07-29T09:50:43;13.52;;;4.30;;
52952;SDS011;38815;55.932;-3.232;2022-07-29T09:53:10;9.10;;;3.30;;
52952;SDS011;38815;55.932;-3.232;2022-07-29T09:55:49;9.65;;;2.75;;
52952;SDS011;38815;55.932;-3.232;2022-07-29T09:58:16;8.57;;;3.00;;
52952;SDS011;38815;55.932;-3.232;2022-07-29T10:00:43;8.52;;;2.70;;
52952;SDS011;38815;55.932;-3.232;2022-07-29T10:03:09;9.73;;;2.88;;
52952;SDS011;38815;55.932;-3.232;2022-07-29T10:05:34;11.57;;;3.20;;
52952;SDS011;38815;55.932;-3.232;2022-07-29T10:08:00;10.20;;;2.95;;
52952;SDS011;38815;55.932;-3.232;2022-07-29T10:12:58;23.92;;;4.25;;
52952;SDS011;38815;55.932;-3.232;2022-07-29T10:15:25;13.95;;;2.92;;
52952;SDS011;38815;55.932;-3.232;2022-07-29T10:17:53;17.40;;;3.15;;
52952;SDS011;38815;55.932;-3.232;2022-07-29T10:20:20;28.25;;;3.15;;
52952;SDS011;38815;55.932;-3.232;2022-07-29T10:22:47;10.60;;;2.88;;
52952;SDS011;38815;55.932;-3.232;2022-07-29T10:25:14;11.15;;;2.78;;
52952;SDS011;38815;55.932;-3.232;2022-07-29T10:27:40;12.48;;;2.42;;
52952;SDS011;38815;55.932;-3.232;2022-07-29T10:30:07;8.90;;;2.30;;
52952;SDS011;38815;55.932;-3.232;2022-07-29T10:40:50;12.82;;;2.55;;
52952;SDS011;38815;55.932;-3.232;2022-07-29T10:43:45;8.57;;;1.90;;
52952;SDS011;38815;55.932;-3.232;2022-07-29T10:46:12;7.97;;;1.98;;
52952;SDS011;38815;55.932;-3.232;2022-07-29T10:59:46;7.50;;;2.08;;
52952;SDS011;38815;55.932;-3.232;2022-07-29T11:07:21;5.88;;;1.80;;
52952;SDS011;38815;55.932;-3.232;2022-07-29T11:15:06;6.85;;;1.90;;
52952;SDS011;38815;55.932;-3.232;2022-07-29T11:20:36;8.17;;;1.70;;
52952;SDS011;38815;55.932;-3.232;2022-07-29T11:23:26;3.58;;;1.60;;
52952;SDS011;38815;55.932;-3.232;2022-07-29T11:28:35;5.07;;;1.60;;
52952;SDS011;38815;55.932;-3.232;2022-07-29T11:31:04;4.35;;;1.50;;
52952;SDS011;38815;55.932;-3.232;2022-07-29T11:33:32;6.60;;;1.73;;
52952;SDS011;38815;55.932;-3.232;2022-07-29T11:38:35;5.47;;;1.50;;
52952;SDS011;38815;55.932;-3.232;2022-07-29T11:41:20;4.63;;;1.50;;
52952;SDS011;38815;55.932;-3.232;2022-07-29T11:43:50;4.50;;;1.30;;
52952;SDS011;38815;55.932;-3.232;2022-07-29T11:46:18;6.10;;;1.70;;
52952;SDS011;38815;55.932;-3.232;2022-07-29T11:49:23;6.07;;;1.60;;
52952;SDS011;38815;55.932;-3.232;2022-07-29T11:51:51;4.97;;;1.45;;
52952;SDS011;38815;55.932;-3.232;2022-07-29T11:54:21;4.45;;;1.60;;
52952;SDS011;38815;55.932;-3.232;2022-07-29T11:56:51;4.07;;;1.33;;
52952;SDS011;38815;55.932;-3.232;2022-07-29T11:59:17;3.20;;;1.30;;
52952;SDS011;38815;55.932;-3.232;2022-07-29T12:01:57;4.40;;;1.33;;
52952;SDS011;38815;55.932;-3.232;2022-07-29T12:04:24;6.55;;;1.40;;
52952;SDS011;38815;55.932;-3.232;2022-07-29T12:06:51;3.38;;;1.27;;
52952;SDS011;38815;55.932;-3.232;2022-07-29T12:09:18;3.17;;;1.33;;
52952;SDS011;38815;55.932;-3.232;2022-07-29T12:11:45;3.20;;;1.35;;
52952;SDS011;38815;55.932;-3.232;2022-07-29T12:16:56;2.67;;;1.30;;
52952;SDS011;38815;55.932;-3.232;2022-07-29T12:19:23;3.10;;;1.38;;
52952;SDS011;38815;55.932;-3.232;2022-07-29T12:21:49;4.82;;;1.55;;
52952;SDS011;38815;55.932;-3.232;2022-07-29T12:24:16;4.60;;;1.63;;
52952;SDS011;38815;55.932;-3.232;2022-07-29T12:27:04;4.47;;;1.40;;
52952;SDS011;38815;55.932;-3.232;2022-07-29T12:29:28;7.05;;;1.50;;
52952;SDS011;38815;55.932;-3.232;2022-07-29T12:31:54;4.85;;;1.48;;
52952;SDS011;38815;55.932;-3.232;2022-07-29T12:34:22;3.47;;;1.30;;
52952;SDS011;38815;55.932;-3.232;2022-07-29T12:36:49;1.92;;;1.13;;
52952;SDS011;38815;55.932;-3.232;2022-07-29T12:39:18;4.03;;;1.40;;
52952;SDS011;38815;55.932;-3.232;2022-07-29T12:41:43;3.80;;;1.38;;
52952;SDS011;38815;55.932;-3.232;2022-07-29T12:44:10;5.63;;;1.25;;
52952;SDS011;38815;55.932;-3.232;2022-07-29T12:46:35;2.90;;;1.30;;
52952;SDS011;38815;55.932;-3.232;2022-07-29T12:49:01;3.42;;;1.42;;
52952;SDS011;38815;55.932;-3.232;2022-07-29T12:51:38;3.90;;;1.40;;
52952;SDS011;38815;55.932;-3.232;2022-07-29T12:54:12;2.78;;;1.30;;
52952;SDS011;38815;55.932;-3.232;2022-07-29T12:56:39;5.45;;;1.25;;
52952;SDS011;38815;55.932;-3.232;2022-07-29T12:59:19;3.38;;;1.38;;
52952;SDS011;38815;55.932;-3.232;2022-07-29T13:01:47;6.15;;;1.38;;
52952;SDS011;38815;55.932;-3.232;2022-07-29T13:04:30;3.25;;;1.20;;
52952;SDS011;38815;55.932;-3.232;2022-07-29T13:07:03;3.15;;;1.20;;
52952;SDS011;38815;55.932;-3.232;2022-07-29T13:09:38;3.40;;;1.10;;
52952;SDS011;38815;55.932;-3.232;2022-07-29T13:12:10;4.82;;;1.38;;
52952;SDS011;38815;55.932;-3.232;2022-07-29T13:21:59;3.08;;;1.10;;
52952;SDS011;38815;55.932;-3.232;2022-07-29T13:24:24;6.60;;;1.50;;
52952;SDS011;38815;55.932;-3.232;2022-07-29T13:26:50;6.53;;;1.30;;
52952;SDS011;38815;55.932;-3.232;2022-07-29T13:29:16;3.85;;;1.40;;
52952;SDS011;38815;55.932;-3.232;2022-07-29T13:31:42;2.65;;;1.27;;
52952;SDS011;38815;55.932;-3.232;2022-07-29T13:34:08;6.25;;;1.58;;
52952;SDS011;38815;55.932;-3.232;2022-07-29T13:36:33;3.80;;;1.23;;
52952;SDS011;38815;55.932;-3.232;2022-07-29T13:38:58;3.95;;;1.33;;
52952;SDS011;38815;55.932;-3.232;2022-07-29T13:41:26;5.95;;;1.33;;
52952;SDS011;38815;55.932;-3.232;2022-07-29T13:43:51;2.90;;;1.20;;
52952;SDS011;38815;55.932;-3.232;2022-07-29T13:46:17;4.68;;;1.20;;
52952;SDS011;38815;55.932;-3.232;2022-07-29T13:48:42;6.97;;;1.50;;
52952;SDS011;38815;55.932;-3.232;2022-07-29T13:51:07;4.32;;;1.20;;
52952;SDS011;38815;55.932;-3.232;2022-07-29T13:53:33;3.72;;;1.20;;
52952;SDS011;38815;55.932;-3.232;2022-07-29T13:55:58;2.75;;;1.30;;
52952;SDS011;38815;55.932;-3.232;2022-07-29T13:58:23;4.22;;;1.27;;
52952;SDS011;38815;55.932;-3.232;2022-07-29T14:00:49;3.15;;;1.35;;
52952;SDS011;38815;55.932;-3.232;2022-07-29T14:03:15;4.82;;;1.40;;
52952;SDS011;38815;55.932;-3.232;2022-07-29T14:05:40;3.28;;;1.35;;
52952;SDS011;38815;55.932;-3.232;2022-07-29T14:08:06;6.30;;;1.70;;
52952;SDS011;38815;55.932;-3.232;2022-07-29T14:10:31;7.57;;;1.75;;
52952;SDS011;38815;55.932;-3.232;2022-07-29T14:12:56;4.35;;;1.30;;
52952;SDS011;38815;55.932;-3.232;2022-07-29T14:15:22;3.72;;;1.45;;
52952;SDS011;38815;55.932;-3.232;2022-07-29T14:17:48;4.10;;;1.40;;
52952;SDS011;38815;55.932;-3.232;2022-07-29T14:20:13;3.75;;;1.27;;
52952;SDS011;38815;55.932;-3.232;2022-07-29T14:22:40;4.88;;;1.30;;
52952;SDS011;38815;55.932;-3.232;2022-07-29T14:25:07;2.85;;;1.30;;
52952;SDS011;38815;55.932;-3.232;2022-07-29T14:27:33;3.67;;;1.38;;
52952;SDS011;38815;55.932;-3.232;2022-07-29T14:29:58;3.83;;;1.38;;
52952;SDS011;38815;55.932;-3.232;2022-07-29T14:32:23;18.00;;;1.60;;
52952;SDS011;38815;55.932;-3.232;2022-07-29T14:34:49;7.85;;;1.42;;
52952;SDS011;38815;55.932;-3.232;2022-07-29T14:37:14;6.38;;;1.92;;
52952;SDS011;38815;55.932;-3.232;2022-07-29T14:39:40;8.50;;;1.77;;
52952;SDS011;38815;55.932;-3.232;2022-07-29T14:42:06;7.72;;;1.48;;
52952;SDS011;38815;55.932;-3.232;2022-07-29T14:44:31;5.55;;;1.67;;
52952;SDS011;38815;55.932;-3.232;2022-07-29T14:46:57;5.38;;;1.38;;
52952;SDS011;38815;55.932;-3.232;2022-07-29T14:49:24;5.40;;;1.77;;
52952;SDS011;38815;55.932;-3.232;2022-07-29T14:51:50;8.27;;;1.80;;
52952;SDS011;38815;55.932;-3.232;2022-07-29T14:54:16;2.55;;;1.23;;
52952;SDS011;38815;55.932;-3.232;2022-07-29T14:56:41;5.70;;;1.55;;
52952;SDS011;38815;55.932;-3.232;2022-07-29T14:59:06;6.60;;;1.50;;
52952;SDS011;38815;55.932;-3.232;2022-07-29T15:01:32;4.68;;;1.42;;
52952;SDS011;38815;55.932;-3.232;2022-07-29T15:03:57;6.72;;;1.85;;
52952;SDS011;38815;55.932;-3.232;2022-07-29T15:06:23;7.82;;;1.70;;
52952;SDS011;38815;55.932;-3.232;2022-07-29T15:08:48;11.38;;;1.80;;
52952;SDS011;38815;55.932;-3.232;2022-07-29T15:11:13;8.93;;;1.67;;
52952;SDS011;38815;55.932;-3.232;2022-07-29T15:13:39;6.50;;;1.83;;
52952;SDS011;38815;55.932;-3.232;2022-07-29T15:16:04;4.22;;;1.63;;
52952;SDS011;38815;55.932;-3.232;2022-07-29T15:18:30;4.93;;;1.90;;
52952;SDS011;38815;55.932;-3.232;2022-07-29T15:20:56;2.55;;;1.30;;
52952;SDS011;38815;55.932;-3.232;2022-07-29T15:23:21;4.45;;;1.60;;
52952;SDS011;38815;55.932;-3.232;2022-07-29T15:25:47;4.28;;;1.60;;
52952;SDS011;38815;55.932;-3.232;2022-07-29T15:28:12;4.55;;;1.40;;
52952;SDS011;38815;55.932;-3.232;2022-07-29T15:30:37;3.65;;;1.52;;